createdAt,value
2019-01-05T00:02:20.233Z,47.50
2019-01-05T00:05:08.041Z,47.40
2019-01-05T00:08:05.128Z,47.40
2019-01-05T00:10:52.121Z,47.60
2019-01-05T00:13:49.254Z,47.20
2019-01-05T00:16:36.368Z,47.10
2019-01-05T00:19:33.485Z,46.90
2019-01-05T00:22:20.320Z,46.70
2019-01-05T00:25:17.996Z,46.60
2019-01-05T00:28:06.202Z,46.50
2019-01-05T00:30:53.344Z,46.40
2019-01-05T00:33:43.039Z,46.40
2019-01-05T00:36:37.858Z,46.40
2019-01-05T00:39:24.887Z,46.30
2019-01-05T00:42:12.302Z,46.30
2019-01-05T00:44:59.022Z,46.60
2019-01-05T00:47:59.805Z,45.90
2019-01-05T00:50:51.774Z,45.80
2019-01-05T00:53:39.948Z,45.80
2019-01-05T00:56:31.237Z,45.90
2019-01-05T00:59:18.188Z,46.00
2019-01-05T01:02:05.460Z,46.30
2019-01-05T01:04:55.462Z,46.40
2019-01-05T01:07:58.997Z,46.60
2019-01-05T01:10:53.113Z,46.80
2019-01-05T01:13:53.217Z,46.90
2019-01-05T01:16:42.569Z,46.90
2019-01-05T01:19:36.521Z,46.70
2019-01-05T01:22:33.593Z,46.70
2019-01-05T01:25:24.821Z,46.70
2019-01-05T01:28:28.253Z,46.70
2019-01-05T01:31:19.496Z,46.00
2019-01-05T01:34:06.151Z,46.80
2019-01-05T01:36:46.273Z,46.90
2019-01-05T01:39:58.496Z,47.00
2019-01-05T01:43:01.754Z,47.10
2019-01-05T01:45:56.656Z,47.10
2019-01-05T01:48:53.832Z,47.10
2019-01-05T01:51:42.399Z,47.00
2019-01-05T01:54:33.644Z,47.60
2019-01-05T01:57:23.393Z,46.90
2019-01-05T02:00:24.536Z,47.10
2019-01-05T02:03:20.754Z,46.90
2019-01-05T02:06:07.414Z,46.90
2019-01-05T02:08:57.835Z,46.80
2019-01-05T02:12:04.317Z,46.80
2019-01-05T02:14:52.523Z,46.80
2019-01-05T02:18:16.048Z,46.70
2019-01-05T02:21:28.780Z,46.90
2019-01-05T02:24:45.653Z,46.90
2019-01-05T02:28:08.022Z,46.90
2019-01-05T02:31:30.182Z,46.90
2019-01-05T02:34:51.608Z,46.90
2019-01-05T02:38:15.514Z,47.00
2019-01-05T02:42:02.461Z,47.10
2019-01-05T02:45:28.691Z,47.10
2019-01-05T02:48:53.086Z,47.10
2019-01-05T02:52:34.560Z,47.00
2019-01-05T02:55:54.332Z,47.10
2019-01-05T02:59:36.497Z,47.10
2019-01-05T03:03:10.622Z,47.00
2019-01-05T03:06:44.517Z,47.00
2019-01-05T03:10:08.962Z,47.00
2019-01-05T03:13:36.916Z,46.90
2019-01-05T03:17:15.665Z,47.00
2019-01-05T03:20:41.224Z,46.90
2019-01-05T03:24:01.079Z,46.90
2019-01-05T03:27:25.341Z,46.90
2019-01-05T03:31:22.280Z,46.90
2019-01-05T03:34:33.369Z,46.80
2019-01-05T03:38:06.788Z,46.90
2019-01-05T03:41:12.057Z,46.90
2019-01-05T03:44:44.574Z,46.90
2019-01-05T03:48:14.441Z,46.90
2019-01-05T03:51:37.540Z,46.90
2019-01-05T03:54:50.656Z,46.80
2019-01-05T03:58:17.758Z,46.80
2019-01-05T04:01:48.416Z,46.80
2019-01-05T04:05:12.709Z,46.80
2019-01-05T04:08:23.753Z,46.80
2019-01-05T04:11:56.646Z,46.90
2019-01-05T04:15:37.181Z,46.90
2019-01-05T04:19:20.514Z,46.80
2019-01-05T04:23:14.194Z,46.90
2019-01-05T04:26:37.846Z,46.80
2019-01-05T04:29:49.935Z,46.80
2019-01-05T04:32:56.995Z,46.90
2019-01-05T04:36:20.738Z,46.90
2019-01-05T04:39:34.428Z,46.90
2019-01-05T04:42:58.217Z,46.80
2019-01-05T04:46:35.350Z,46.80
2019-01-05T04:50:01.781Z,46.70
2019-01-05T04:53:29.746Z,47.10
2019-01-05T04:57:03.955Z,46.70
2019-01-05T05:00:45.693Z,46.70
2019-01-05T05:04:06.668Z,46.70
2019-01-05T05:07:39.869Z,47.40
2019-01-05T05:10:59.261Z,46.70
2019-01-05T05:14:28.294Z,46.70
2019-01-05T05:18:05.582Z,46.70
2019-01-05T05:21:45.581Z,46.70
2019-01-05T05:25:02.485Z,46.80
2019-01-05T05:28:35.692Z,46.80
2019-01-05T05:31:54.715Z,46.80
2019-01-05T05:35:26.352Z,46.70
2019-01-05T05:38:57.996Z,46.80
2019-01-05T05:42:29.662Z,46.70
2019-01-05T05:45:42.853Z,46.70
2019-01-05T05:49:06.495Z,46.70
2019-01-05T05:52:49.889Z,46.70
2019-01-05T05:56:04.347Z,46.80
2019-01-05T05:59:36.822Z,46.70
2019-01-05T06:03:18.465Z,46.80
2019-01-05T06:07:04.453Z,46.70
2019-01-05T06:10:42.403Z,46.70
2019-01-05T06:14:19.565Z,46.70
2019-01-05T06:17:55.198Z,46.70
2019-01-05T06:21:34.370Z,46.60
2019-01-05T06:25:24.796Z,46.70
2019-01-05T06:29:11.898Z,46.70
2019-01-05T06:32:34.712Z,46.70
2019-01-05T06:36:02.402Z,46.70
2019-01-05T06:39:43.378Z,46.70
2019-01-05T06:43:08.537Z,46.70
2019-01-05T06:46:41.918Z,46.70
2019-01-05T06:50:26.359Z,46.70
2019-01-05T06:53:43.830Z,46.70
2019-01-05T06:56:58.566Z,46.70
2019-01-05T07:00:28.432Z,46.40
2019-01-05T07:04:08.132Z,47.10
2019-01-05T07:07:39.706Z,49.20
2019-01-05T07:10:50.801Z,48.70
2019-01-05T07:14:24.770Z,48.20
2019-01-05T07:17:47.607Z,47.20
2019-01-05T07:21:15.552Z,47.50
2019-01-05T07:24:41.629Z,47.40
2019-01-05T07:28:20.642Z,47.70
2019-01-05T07:31:51.386Z,47.90
2019-01-05T07:35:31.783Z,48.00
2019-01-05T07:39:11.870Z,48.10
2019-01-05T07:42:46.686Z,48.00
2019-01-05T07:46:14.468Z,47.90
2019-01-05T07:49:41.889Z,47.90
2019-01-05T07:53:00.233Z,47.80
2019-01-05T07:56:24.173Z,47.80
2019-01-05T08:00:03.497Z,47.80
2019-01-05T08:03:23.146Z,47.80
2019-01-05T08:06:52.714Z,47.90
2019-01-05T08:10:36.307Z,47.90
2019-01-05T08:13:52.584Z,47.80
2019-01-05T08:17:29.661Z,47.80
2019-01-05T08:21:08.519Z,47.80
2019-01-05T08:24:32.200Z,47.80
2019-01-05T08:28:19.285Z,47.70
2019-01-05T08:31:54.590Z,47.70
2019-01-05T08:35:37.134Z,47.70
2019-01-05T08:38:57.246Z,47.70
2019-01-05T08:42:39.782Z,47.70
2019-01-05T08:46:16.280Z,47.40
2019-01-05T08:49:37.553Z,47.70
2019-01-05T08:53:14.125Z,48.00
2019-01-05T08:57:07.443Z,48.20
2019-01-05T09:00:37.715Z,47.70
2019-01-05T09:03:50.926Z,47.70
2019-01-05T09:07:47.108Z,47.80
2019-01-05T09:11:13.505Z,47.70
2019-01-05T09:14:37.498Z,49.70
2019-01-05T09:18:22.018Z,48.40
2019-01-05T09:22:09.299Z,48.30
2019-01-05T09:25:51.591Z,48.00
2019-01-05T09:29:11.499Z,48.10
2019-01-05T09:32:30.148Z,50.10
2019-01-05T09:35:54.302Z,49.40
2019-01-05T09:39:31.194Z,49.50
2019-01-05T09:42:53.601Z,49.50
2019-01-05T09:46:40.543Z,49.40
2019-01-05T09:50:01.493Z,49.20
2019-01-05T09:53:31.749Z,48.90
2019-01-05T09:57:10.774Z,48.60
2019-01-05T10:00:25.856Z,48.50
2019-01-05T10:03:40.994Z,48.30
2019-01-05T10:07:18.044Z,48.20
2019-01-05T10:10:37.696Z,48.30
2019-01-05T10:14:06.298Z,48.30
2019-01-05T10:17:34.354Z,48.20
2019-01-05T10:21:18.903Z,48.30
2019-01-05T10:24:55.282Z,48.30
2019-01-05T10:28:32.541Z,48.40
2019-01-05T10:32:15.277Z,48.80
2019-01-05T10:35:25.545Z,48.50
2019-01-05T10:38:51.211Z,48.50
2019-01-05T10:42:05.135Z,48.40
2019-01-05T10:45:42.561Z,48.30
2019-01-05T10:49:15.054Z,48.30
2019-01-05T10:52:42.110Z,48.40
2019-01-05T10:56:01.877Z,48.70
2019-01-05T10:59:32.482Z,48.60
2019-01-05T11:03:12.675Z,48.50
2019-01-05T11:06:42.931Z,48.50
2019-01-05T11:10:14.772Z,48.50
2019-01-05T11:14:04.035Z,48.60
2019-01-05T11:17:15.965Z,48.60
2019-01-05T11:20:36.215Z,48.50
2019-01-05T11:24:01.906Z,48.50
2019-01-05T11:27:42.736Z,48.40
2019-01-05T11:30:53.722Z,48.60
2019-01-05T11:34:08.044Z,48.50
2019-01-05T11:38:01.147Z,48.60
2019-01-05T11:42:01.178Z,48.60
2019-01-05T11:45:30.010Z,48.60
2019-01-05T11:48:57.469Z,48.60
2019-01-05T11:52:27.126Z,48.60
2019-01-05T11:55:50.927Z,48.60
2019-01-05T11:59:24.178Z,48.50
2019-01-05T12:03:18.658Z,48.50
2019-01-05T12:06:35.120Z,48.50
2019-01-05T12:10:16.843Z,48.60
2019-01-05T12:13:50.497Z,48.60
2019-01-05T12:17:33.646Z,48.60
2019-01-05T12:20:55.380Z,48.60
2019-01-05T12:24:44.703Z,48.60
2019-01-05T12:28:20.514Z,48.50
2019-01-05T12:31:40.773Z,48.50
2019-01-05T12:35:31.065Z,48.80
2019-01-05T12:38:56.874Z,48.70
2019-01-05T12:42:24.734Z,48.40
2019-01-05T12:46:00.251Z,48.40
2019-01-05T12:49:28.106Z,48.30
2019-01-05T12:53:21.800Z,48.10
2019-01-05T12:56:45.078Z,48.10
2019-01-05T13:00:28.891Z,48.10
2019-01-05T13:03:55.162Z,48.00
2019-01-05T13:07:28.092Z,48.20
2019-01-05T13:10:48.383Z,48.20
2019-01-05T13:14:12.554Z,48.20
2019-01-05T13:17:18.385Z,48.10
2019-01-05T13:20:33.585Z,48.00
2019-01-05T13:24:03.852Z,48.00
2019-01-05T13:27:15.027Z,48.00
2019-01-05T13:31:01.179Z,47.90
2019-01-05T13:34:38.301Z,47.90
2019-01-05T13:37:59.912Z,47.80
2019-01-05T13:41:23.610Z,47.90
2019-01-05T13:45:09.592Z,47.80
2019-01-05T13:49:05.966Z,47.70
2019-01-05T13:52:45.774Z,47.70
2019-01-05T13:55:44.528Z,48.30
2019-01-05T13:58:35.440Z,47.70
2019-01-05T14:01:23.606Z,47.60
2019-01-05T14:04:06.146Z,47.60
2019-01-05T14:06:59.513Z,47.50
2019-01-05T14:09:46.130Z,47.50
2019-01-05T14:12:46.158Z,47.50
2019-01-05T14:15:34.290Z,47.50
2019-01-05T14:18:19.781Z,47.40
2019-01-05T14:21:16.971Z,47.50
2019-01-05T14:24:03.698Z,47.40
2019-01-05T14:26:51.864Z,47.40
2019-01-05T14:29:40.043Z,47.40
2019-01-05T14:32:24.526Z,47.40
2019-01-05T14:35:17.846Z,47.50
2019-01-05T14:38:15.075Z,47.40
2019-01-05T14:40:58.456Z,47.40
2019-01-05T14:43:45.181Z,47.40
2019-01-05T14:46:39.679Z,47.30
2019-01-05T14:49:27.842Z,47.30
2019-01-05T14:52:15.240Z,47.30
2019-01-05T14:55:18.353Z,47.30
2019-01-05T14:58:06.514Z,47.30
2019-01-05T15:00:54.673Z,47.30
2019-01-05T15:04:00.946Z,47.20
2019-01-05T15:07:01.350Z,47.20
2019-01-05T15:09:50.258Z,47.20
2019-01-05T15:12:47.310Z,47.20
2019-01-05T15:15:44.539Z,47.40
2019-01-05T15:18:35.632Z,48.20
2019-01-05T15:21:36.069Z,48.60
2019-01-05T15:24:37.613Z,48.80
2019-01-05T15:27:24.709Z,48.80
2019-01-05T15:30:11.635Z,48.80
2019-01-05T15:32:58.425Z,48.90
2019-01-05T15:35:46.806Z,48.80
2019-01-05T15:38:28.999Z,48.80
2019-01-05T15:41:16.044Z,48.80
2019-01-05T15:44:02.950Z,48.80
2019-01-05T15:47:03.298Z,48.80
2019-01-05T15:50:06.511Z,48.80
2019-01-05T15:52:53.521Z,48.70
2019-01-05T15:55:54.039Z,48.80
2019-01-05T15:58:41.157Z,49.40
2019-01-05T16:01:27.876Z,48.80
2019-01-05T16:04:18.773Z,48.80
2019-01-05T16:07:05.754Z,48.70
2019-01-05T16:09:54.608Z,48.60
2019-01-05T16:12:48.681Z,48.60
2019-01-05T16:15:41.443Z,48.60
2019-01-05T16:18:28.316Z,48.60
2019-01-05T16:21:18.155Z,48.50
2019-01-05T16:24:09.378Z,48.70
2019-01-05T16:27:06.736Z,48.50
2019-01-05T16:30:04.171Z,48.50
2019-01-05T16:32:51.066Z,48.50
2019-01-05T16:35:34.761Z,48.50
2019-01-05T16:38:21.450Z,48.60
2019-01-05T16:41:18.862Z,48.50
2019-01-05T16:44:08.709Z,48.50
2019-01-05T16:46:56.859Z,48.50
2019-01-05T16:49:44.036Z,48.50
2019-01-05T16:52:44.217Z,48.50
2019-01-05T16:55:40.733Z,48.50
2019-01-05T16:58:27.472Z,48.50
2019-01-05T17:01:22.581Z,48.50
2019-01-05T17:04:24.742Z,48.60
2019-01-05T17:07:11.509Z,48.60
2019-01-05T17:09:58.437Z,48.60
2019-01-05T17:12:44.422Z,48.60
2019-01-05T17:15:30.341Z,48.60
2019-01-05T17:18:19.984Z,48.70
2019-01-05T17:21:23.674Z,48.80
2019-01-05T17:24:10.653Z,48.80
2019-01-05T17:26:59.013Z,48.70
2019-01-05T17:29:46.018Z,48.60
2019-01-05T17:32:55.141Z,48.50
2019-01-05T17:35:42.135Z,48.50
2019-01-05T17:38:29.149Z,48.60
2019-01-05T17:41:13.245Z,48.50
2019-01-05T17:43:59.977Z,48.50
2019-01-05T17:46:46.916Z,48.60
2019-01-05T17:49:35.468Z,48.40
2019-01-05T17:52:20.447Z,48.40
2019-01-05T17:55:10.742Z,48.40
2019-01-05T17:57:57.557Z,48.50
2019-01-05T18:01:03.789Z,48.40
2019-01-05T18:03:54.809Z,48.50
2019-01-05T18:06:41.516Z,48.50
2019-01-05T18:09:26.841Z,48.40
2019-01-05T18:12:12.896Z,48.50
2019-01-05T18:15:07.135Z,48.50
2019-01-05T18:17:53.849Z,48.50
2019-01-05T18:20:40.842Z,48.40
2019-01-05T18:23:41.334Z,48.50
2019-01-05T18:26:28.253Z,48.50
2019-01-05T18:29:25.239Z,48.40
2019-01-05T18:32:28.906Z,48.80
2019-01-05T18:35:22.777Z,48.90
2019-01-05T18:38:14.084Z,48.80
2019-01-05T18:41:11.527Z,48.70
2019-01-05T18:43:58.201Z,49.20
2019-01-05T18:46:45.106Z,48.90
2019-01-05T18:49:28.333Z,48.70
2019-01-05T18:52:15.146Z,48.70
2019-01-05T18:55:03.997Z,48.50
2019-01-05T18:57:50.912Z,48.50
2019-01-05T19:00:39.108Z,48.50
2019-01-05T19:03:27.252Z,48.40
2019-01-05T19:06:27.130Z,48.40
2019-01-05T19:09:18.324Z,48.30
2019-01-05T19:12:08.765Z,48.20
2019-01-05T19:14:53.495Z,48.20
2019-01-05T19:17:40.435Z,48.20
2019-01-05T19:20:27.453Z,48.20
2019-01-05T19:23:15.677Z,48.20
2019-01-05T19:26:19.164Z,48.00
2019-01-05T19:29:06.157Z,48.00
2019-01-05T19:31:51.497Z,48.00
2019-01-05T19:34:48.764Z,48.00
2019-01-05T19:37:49.015Z,48.00
2019-01-05T19:40:39.948Z,47.90
2019-01-05T19:43:29.801Z,48.00
2019-01-05T19:46:13.770Z,47.90
2019-01-05T19:48:58.273Z,47.80
2019-01-05T19:51:59.256Z,47.90
2019-01-05T19:54:46.076Z,47.80
2019-01-05T19:57:43.334Z,47.80
2019-01-05T20:00:37.624Z,47.80
2019-01-05T20:03:24.583Z,47.70
2019-01-05T20:06:22.821Z,47.70
2019-01-05T20:09:17.282Z,47.70
2019-01-05T20:12:05.442Z,47.70
2019-01-05T20:14:57.273Z,47.70
2019-01-05T20:18:00.508Z,47.70
2019-01-05T20:20:47.483Z,47.70
2019-01-05T20:23:28.163Z,48.20
2019-01-05T20:26:20.271Z,48.20
2019-01-05T20:29:07.234Z,48.00
2019-01-05T20:32:13.750Z,48.00
2019-01-05T20:35:00.787Z,48.20
2019-01-05T20:37:46.796Z,48.20
2019-01-05T20:40:33.598Z,48.00
2019-01-05T20:43:30.901Z,48.10
2019-01-05T20:46:37.164Z,48.10
2019-01-05T20:49:23.864Z,48.10
2019-01-05T20:52:27.245Z,48.20
2019-01-05T20:55:15.453Z,48.00
2019-01-05T20:58:02.187Z,47.80
2019-01-05T21:00:56.182Z,47.50
2019-01-05T21:03:44.404Z,47.40
2019-01-05T21:06:31.125Z,47.30
2019-01-05T21:09:17.769Z,47.20
2019-01-05T21:12:04.793Z,47.20
2019-01-05T21:14:58.783Z,47.20
2019-01-05T21:17:50.044Z,47.20
2019-01-05T21:20:38.343Z,47.30
2019-01-05T21:23:35.863Z,47.20
2019-01-05T21:26:39.372Z,47.30
2019-01-05T21:29:33.454Z,47.40
2019-01-05T21:32:21.386Z,47.60
2019-01-05T21:35:15.654Z,47.60
2019-01-05T21:38:02.358Z,47.70
2019-01-05T21:41:09.053Z,47.70
2019-01-05T21:44:12.279Z,47.70
2019-01-05T21:46:56.046Z,47.90
2019-01-05T21:49:50.205Z,48.00
2019-01-05T21:52:49.703Z,47.90
2019-01-05T21:55:47.210Z,48.10
2019-01-05T21:58:36.233Z,48.00
2019-01-05T22:01:21.792Z,48.10
2019-01-05T22:04:06.511Z,48.10
2019-01-05T22:06:53.960Z,48.00
2019-01-05T22:09:40.855Z,47.90
2019-01-05T22:12:27.572Z,47.90
2019-01-05T22:15:18.868Z,47.90
2019-01-05T22:18:08.077Z,47.90
2019-01-05T22:21:15.353Z,47.90
2019-01-05T22:24:19.246Z,47.80
2019-01-05T22:27:08.762Z,48.00
2019-01-05T22:30:03.702Z,48.00
2019-01-05T22:32:48.418Z,47.90
2019-01-05T22:35:51.868Z,47.90
2019-01-05T22:38:38.499Z,47.90
2019-01-05T22:41:27.118Z,47.90
2019-01-05T22:44:15.021Z,47.90
2019-01-05T22:47:11.002Z,47.90
2019-01-05T22:49:55.482Z,47.90
2019-01-05T22:52:46.661Z,47.90
2019-01-05T22:55:41.116Z,47.90
2019-01-05T22:58:38.399Z,48.00
2019-01-05T23:01:29.610Z,48.00
2019-01-05T23:04:17.816Z,48.10
2019-01-05T23:07:16.251Z,48.10
2019-01-05T23:10:17.474Z,48.00
2019-01-05T23:13:04.442Z,48.20
2019-01-05T23:15:52.884Z,48.20
2019-01-05T23:18:39.883Z,48.20
2019-01-05T23:21:26.918Z,48.40
2019-01-05T23:24:06.598Z,48.20
2019-01-05T23:26:54.709Z,48.10
2019-01-05T23:29:46.000Z,48.10
2019-01-05T23:32:33.156Z,48.10
2019-01-05T23:35:24.094Z,48.10
2019-01-05T23:38:14.936Z,48.00
2019-01-05T23:41:14.166Z,47.90
2019-01-05T23:44:01.552Z,47.90
2019-01-05T23:46:42.869Z,47.90
2019-01-05T23:49:42.363Z,47.90
2019-01-05T23:52:28.291Z,47.90
2019-01-05T23:55:15.124Z,47.90
2019-01-05T23:58:02.070Z,47.90
